Time;durP1;ratioP1;P1;durP2;ratioP2;P2;SDS_P1;SDS_P2;PMS_P1;PMS_P2;Temp;Humidity;BMP_temperature;BMP_pressure;BME280_temperature;BME280_humidity;BME280_pressure;Samples;Min_cycle;Max_cycle;Signal;HPM_P1;HPM_P2
2022/05/28 00:00:33;;;;;;;1.10;1.00;;;15.60;99.90;;;;;;5093326;28;20625;-46
2022/05/28 00:03:01;;;;;;;1.07;0.90;;;15.50;99.90;;;;;;5094902;28;20670;-46
2022/05/28 00:05:28;;;;;;;0.70;0.70;;;15.40;99.90;;;;;;5077662;28;20320;-46
2022/05/28 00:07:55;;;;;;;1.00;1.00;;;15.30;99.90;;;;;;5090542;28;20250;-46
2022/05/28 00:10:22;;;;;;;0.70;0.70;;;15.20;99.90;;;;;;5074868;28;20201;-46
2022/05/28 00:12:51;;;;;;;0.83;0.83;;;15.10;99.90;;;;;;5074404;28;20256;-46
2022/05/28 00:15:18;;;;;;;1.50;0.80;;;15.00;99.90;;;;;;5074618;28;20228;-45
2022/05/28 00:17:45;;;;;;;1.30;1.20;;;15.10;99.90;;;;;;5073780;28;20286;-46
2022/05/28 00:20:13;;;;;;;1.27;1.27;;;15.00;99.90;;;;;;5072019;28;20255;-46
2022/05/28 00:22:43;;;;;;;0.77;0.77;;;15.10;99.90;;;;;;5082617;28;20193;-46
2022/05/28 00:25:11;;;;;;;1.00;1.00;;;15.00;99.90;;;;;;5075530;28;20200;-46
2022/05/28 00:27:38;;;;;;;1.10;1.10;;;15.00;99.90;;;;;;5090359;28;20189;-46
2022/05/28 00:30:09;;;;;;;0.73;0.73;;;15.00;99.90;;;;;;5094627;28;20743;-46
2022/05/28 00:32:37;;;;;;;0.70;0.70;;;15.00;99.90;;;;;;5077907;28;20663;-46
2022/05/28 00:35:06;;;;;;;0.90;0.90;;;15.10;99.90;;;;;;5073901;28;20201;-46
2022/05/28 00:37:33;;;;;;;0.67;0.60;;;15.00;99.90;;;;;;5071762;28;20217;-46
2022/05/28 00:40:02;;;;;;;1.90;0.80;;;15.00;99.90;;;;;;5081490;28;20208;-46
2022/05/28 00:42:29;;;;;;;0.70;0.70;;;15.00;99.90;;;;;;5081678;28;20784;-46
2022/05/28 00:44:56;;;;;;;0.83;0.83;;;15.00;99.90;;;;;;5081550;28;20587;-46
2022/05/28 00:47:25;;;;;;;1.10;1.10;;;15.00;99.90;;;;;;5079531;28;20250;-46
2022/05/28 00:49:53;;;;;;;1.20;1.20;;;14.90;99.90;;;;;;5083255;28;20193;-46
2022/05/28 00:52:24;;;;;;;1.20;0.93;;;15.00;99.90;;;;;;5091000;28;20254;-46
2022/05/28 00:54:51;;;;;;;0.83;0.83;;;15.10;99.90;;;;;;5064381;28;20667;-46
2022/05/28 00:57:20;;;;;;;1.27;1.27;;;15.10;99.90;;;;;;5064236;28;20213;-46
2022/05/28 00:59:47;;;;;;;1.37;1.27;;;15.20;99.90;;;;;;5073446;28;20251;-46
2022/05/28 01:02:20;;;;;;;1.30;1.30;;;15.20;99.90;;;;;;5073155;28;20205;-46
2022/05/28 01:04:55;;;;;;;1.47;1.03;;;15.20;99.90;;;;;;5081963;28;20203;-46
2022/05/28 01:07:34;;;;;;;3.67;1.20;;;15.20;99.90;;;;;;5073546;28;20287;-46
2022/05/28 01:10:08;;;;;;;1.17;1.13;;;15.20;99.90;;;;;;5070395;28;20205;-46
2022/05/28 01:12:43;;;;;;;1.17;1.00;;;15.20;99.90;;;;;;5072063;28;20849;-46
2022/05/28 01:15:19;;;;;;;1.23;0.77;;;15.20;99.90;;;;;;5073456;28;20196;-46
2022/05/28 01:17:50;;;;;;;0.67;0.67;;;15.20;99.90;;;;;;5080516;28;20232;-46
2022/05/28 01:20:22;;;;;;;1.57;0.87;;;15.20;99.90;;;;;;5086127;28;20218;-46
2022/05/28 01:23:07;;;;;;;1.17;0.60;;;15.20;99.90;;;;;;5079135;28;20205;-46
2022/05/28 01:25:44;;;;;;;0.90;0.90;;;15.20;99.90;;;;;;5074775;28;20217;-46
2022/05/28 01:28:18;;;;;;;4.17;1.77;;;15.20;99.90;;;;;;5065155;28;20570;-46
2022/05/28 01:30:46;;;;;;;0.90;0.90;;;15.20;99.90;;;;;;5077849;28;20201;-46
2022/05/28 01:33:15;;;;;;;0.93;0.90;;;15.20;99.90;;;;;;5093153;28;20205;-46
2022/05/28 01:35:44;;;;;;;1.00;0.90;;;15.20;99.90;;;;;;5084102;28;20873;-46
2022/05/28 01:38:13;;;;;;;1.10;1.00;;;15.10;99.90;;;;;;5082245;28;20212;-46
2022/05/28 01:40:41;;;;;;;1.00;0.93;;;15.10;99.90;;;;;;5072787;28;20616;-46
2022/05/28 01:43:11;;;;;;;0.70;0.70;;;15.10;99.90;;;;;;5078735;28;20197;-45
2022/05/28 01:45:44;;;;;;;1.23;0.70;;;15.10;99.90;;;;;;5080946;28;20217;-46
2022/05/28 01:48:12;;;;;;;1.20;1.07;;;15.10;99.90;;;;;;5060419;28;20209;-46
2022/05/28 01:50:44;;;;;;;2.37;1.03;;;15.20;99.90;;;;;;5070677;28;20736;-46
2022/05/28 01:54:07;;;;;;;0.80;0.77;;;15.20;99.90;;;;;;5064294;28;20193;-46
2022/05/28 01:56:06;;;;;;;0.80;0.80;;;15.20;99.90;;;;;;5071090;28;20228;-46
2022/05/28 01:58:33;;;;;;;0.93;0.73;;;15.20;99.90;;;;;;5079978;28;20768;-46
2022/05/28 02:01:02;;;;;;;3.63;1.83;;;15.20;99.90;;;;;;5078299;28;20200;-46
2022/05/28 02:03:33;;;;;;;1.13;1.13;;;15.20;99.90;;;;;;5072131;28;20190;-46
2022/05/28 02:06:00;;;;;;;0.73;0.73;;;15.20;99.90;;;;;;5070085;28;20278;-46
2022/05/28 02:08:29;;;;;;;1.00;1.00;;;15.30;99.90;;;;;;5071094;28;20243;-45
2022/05/28 02:11:03;;;;;;;0.60;0.60;;;15.40;99.90;;;;;;5072150;28;20247;-46
2022/05/28 02:13:39;;;;;;;0.97;0.97;;;15.40;99.90;;;;;;5071191;28;20196;-46
2022/05/28 02:16:16;;;;;;;0.80;0.77;;;15.30;99.90;;;;;;5072000;28;20224;-46
2022/05/28 02:18:49;;;;;;;1.37;1.27;;;15.30;99.90;;;;;;5071940;28;20228;-46
2022/05/28 02:21:21;;;;;;;1.00;0.80;;;15.30;99.90;;;;;;5071972;28;20205;-46
2022/05/28 02:23:55;;;;;;;1.33;1.23;;;15.30;99.90;;;;;;5070934;28;20205;-46
2022/05/28 02:26:27;;;;;;;0.70;0.70;;;15.20;99.90;;;;;;5067807;28;20270;-46
2022/05/28 02:28:55;;;;;;;1.37;0.83;;;15.30;99.90;;;;;;5071725;28;20189;-46
2022/05/28 02:31:28;;;;;;;1.17;1.07;;;15.30;99.90;;;;;;5071559;28;20628;-46
2022/05/28 02:33:55;;;;;;;0.83;0.83;;;15.30;99.90;;;;;;5072131;28;20258;-46
2022/05/28 02:36:22;;;;;;;1.50;1.40;;;15.30;99.90;;;;;;5071677;28;20865;-46
2022/05/28 02:38:49;;;;;;;0.57;0.57;;;15.30;99.90;;;;;;5067327;28;20221;-46
2022/05/28 02:41:17;;;;;;;0.93;0.83;;;15.20;99.90;;;;;;5071374;28;20725;-46
2022/05/28 02:43:44;;;;;;;1.13;1.03;;;15.20;99.90;;;;;;5071721;28;20251;-46
2022/05/28 02:46:11;;;;;;;0.70;0.70;;;15.20;99.90;;;;;;5071892;28;20221;-46
2022/05/28 02:48:40;;;;;;;1.00;0.70;;;15.20;99.90;;;;;;5071902;28;20201;-46
2022/05/28 02:51:08;;;;;;;2.37;0.80;;;15.20;99.90;;;;;;5067166;28;20267;-46
2022/05/28 02:53:35;;;;;;;2.50;0.77;;;15.20;99.90;;;;;;5077395;28;20390;-46
2022/05/28 02:56:03;;;;;;;1.33;0.90;;;15.20;99.90;;;;;;5075553;28;20221;-46
2022/05/28 02:58:30;;;;;;;0.70;0.70;;;15.10;99.90;;;;;;5071357;28;20209;-46
2022/05/28 03:00:57;;;;;;;1.50;1.07;;;15.20;99.90;;;;;;5062221;28;20668;-46
2022/05/28 03:03:24;;;;;;;0.93;0.80;;;15.20;99.90;;;;;;5069567;28;20197;-46
2022/05/28 03:05:53;;;;;;;0.97;0.97;;;15.10;99.90;;;;;;5070112;28;20228;-46
2022/05/28 03:08:20;;;;;;;1.37;0.60;;;15.00;99.90;;;;;;5074878;28;20193;-46
2022/05/28 03:10:47;;;;;;;2.27;1.00;;;14.90;99.90;;;;;;5070824;28;20242;-46
2022/05/28 03:13:15;;;;;;;1.80;0.70;;;14.90;99.90;;;;;;5066987;28;20205;-46
2022/05/28 03:15:42;;;;;;;1.00;0.80;;;14.90;99.90;;;;;;5070765;28;20213;-46
2022/05/28 03:18:09;;;;;;;1.53;1.00;;;14.80;99.90;;;;;;5070886;28;20220;-46
2022/05/28 03:20:37;;;;;;;0.93;0.77;;;14.90;99.90;;;;;;5063866;28;20536;-46
2022/05/28 03:23:05;;;;;;;1.80;1.00;;;14.90;99.90;;;;;;5070576;28;20190;-46
2022/05/28 03:25:32;;;;;;;0.93;0.93;;;14.90;99.90;;;;;;5067765;28;20217;-46
2022/05/28 03:27:59;;;;;;;3.13;0.97;;;14.90;99.90;;;;;;5070897;28;20254;-46
2022/05/28 03:30:26;;;;;;;1.93;0.87;;;14.90;99.90;;;;;;5070627;28;20205;-46
2022/05/28 03:32:53;;;;;;;0.90;0.90;;;14.90;99.90;;;;;;5070455;28;20714;-46
2022/05/28 03:35:20;;;;;;;1.80;1.60;;;14.80;99.90;;;;;;5072093;28;20217;-46
2022/05/28 03:37:47;;;;;;;0.80;0.80;;;14.90;99.90;;;;;;5073892;28;20848;-46
2022/05/28 03:40:15;;;;;;;1.73;0.97;;;14.80;99.90;;;;;;5076511;28;20258;-46
2022/05/28 03:42:42;;;;;;;1.93;1.70;;;14.90;99.90;;;;;;5074362;28;20263;-46
2022/05/28 03:45:10;;;;;;;1.37;1.30;;;14.80;99.90;;;;;;5074332;28;20189;-45
2022/05/28 03:47:37;;;;;;;4.40;1.40;;;14.80;99.90;;;;;;5074294;28;20197;-46
2022/05/28 03:50:06;;;;;;;0.90;0.90;;;14.90;99.90;;;;;;5074315;28;20189;-45
2022/05/28 03:52:33;;;;;;;3.97;1.57;;;14.90;99.90;;;;;;5072830;28;20713;-46
2022/05/28 03:55:00;;;;;;;1.83;1.40;;;14.90;99.90;;;;;;5077802;28;20736;-46
2022/05/28 03:57:31;;;;;;;1.40;1.37;;;14.90;99.90;;;;;;5074195;28;20247;-46
2022/05/28 03:59:58;;;;;;;1.10;1.00;;;15.00;99.90;;;;;;5073644;28;20225;-46
2022/05/28 04:02:26;;;;;;;1.43;1.43;;;15.00;99.90;;;;;;5073876;28;20204;-46
2022/05/28 04:04:53;;;;;;;4.07;1.63;;;15.10;99.90;;;;;;5068835;28;20330;-46
2022/05/28 04:07:21;;;;;;;1.77;0.90;;;15.10;99.90;;;;;;5073921;28;20205;-46
2022/05/28 04:09:48;;;;;;;3.37;1.37;;;15.10;99.90;;;;;;5074158;28;20189;-45
2022/05/28 04:12:16;;;;;;;1.07;1.07;;;15.00;99.90;;;;;;5072392;28;20262;-46
2022/05/28 04:14:44;;;;;;;2.57;1.40;;;15.00;99.90;;;;;;5077823;28;20246;-46
2022/05/28 04:17:12;;;;;;;2.23;1.00;;;15.00;99.90;;;;;;5073811;28;20323;-46
2022/05/28 04:19:39;;;;;;;1.23;1.23;;;15.00;99.90;;;;;;5073689;28;20271;-46
2022/05/28 04:22:06;;;;;;;1.00;0.93;;;14.90;99.90;;;;;;5073503;28;20274;-46
2022/05/28 04:24:33;;;;;;;1.40;1.30;;;14.80;99.90;;;;;;5072814;28;20746;-46
2022/05/28 04:27:00;;;;;;;1.43;1.33;;;14.90;99.90;;;;;;5076410;28;20212;-46
2022/05/28 04:29:27;;;;;;;1.70;0.83;;;14.90;99.90;;;;;;5073662;28;20254;-46
2022/05/28 04:31:58;;;;;;;0.83;0.83;;;14.90;99.90;;;;;;5073432;28;20260;-46
2022/05/28 04:34:25;;;;;;;0.87;0.87;;;14.90;99.90;;;;;;5073385;28;20562;-46
2022/05/28 04:36:52;;;;;;;2.10;1.17;;;14.90;99.90;;;;;;5076768;28;20251;-46
2022/05/28 04:39:19;;;;;;;1.30;1.10;;;14.90;99.90;;;;;;5073010;28;20585;-46
2022/05/28 04:41:46;;;;;;;2.40;1.03;;;15.00;99.90;;;;;;5071045;28;20251;-46
2022/05/28 04:44:13;;;;;;;1.90;0.80;;;15.00;99.90;;;;;;5070802;28;20197;-46
2022/05/28 04:46:40;;;;;;;1.07;1.07;;;15.00;99.90;;;;;;5074916;28;20702;-45
2022/05/28 04:49:09;;;;;;;1.90;1.43;;;15.00;99.90;;;;;;5084455;28;20196;-46
2022/05/28 04:51:36;;;;;;;1.60;1.57;;;15.00;99.90;;;;;;5084964;28;20196;-46
2022/05/28 04:54:03;;;;;;;0.97;0.97;;;14.90;99.90;;;;;;5085405;28;20254;-46
2022/05/28 04:56:30;;;;;;;1.50;0.90;;;14.80;99.90;;;;;;5075333;28;20228;-46
2022/05/28 04:58:57;;;;;;;0.93;0.93;;;14.80;99.90;;;;;;5071594;28;20266;-46
2022/05/28 05:01:24;;;;;;;2.23;1.60;;;14.80;99.90;;;;;;5072170;28;20242;-46
2022/05/28 05:03:52;;;;;;;1.10;1.00;;;14.70;99.90;;;;;;5067950;28;20277;-46
2022/05/28 05:06:20;;;;;;;1.50;1.50;;;14.60;99.90;;;;;;5076289;28;20243;-46
2022/05/28 05:08:48;;;;;;;1.10;1.00;;;14.60;99.90;;;;;;5075398;28;20202;-46
2022/05/28 05:11:15;;;;;;;3.50;1.50;;;14.60;99.90;;;;;;5074815;28;20247;-46
2022/05/28 05:13:43;;;;;;;2.93;1.90;;;14.50;99.90;;;;;;5071372;28;20209;-45
2022/05/28 05:16:11;;;;;;;1.50;1.40;;;14.60;99.90;;;;;;5071320;28;20244;-46
2022/05/28 05:18:38;;;;;;;1.63;1.53;;;14.60;99.90;;;;;;5074199;28;20221;-45
2022/05/28 05:21:05;;;;;;;2.83;2.30;;;14.50;99.90;;;;;;5073538;28;20658;-45
2022/05/28 05:23:33;;;;;;;3.00;1.90;;;14.50;99.90;;;;;;5077963;28;20211;-45
2022/05/28 05:26:01;;;;;;;1.60;1.50;;;14.60;99.90;;;;;;5089545;22;20283;-51
2022/05/28 05:28:28;;;;;;;2.10;2.10;;;14.60;99.90;;;;;;5063416;28;20201;-50
2022/05/28 05:30:55;;;;;;;1.70;1.53;;;14.50;99.90;;;;;;5070200;28;20201;-51
2022/05/28 05:33:21;;;;;;;1.93;1.83;;;14.50;99.90;;;;;;5067373;28;20725;-51
2022/05/28 05:35:48;;;;;;;1.80;1.70;;;14.50;99.90;;;;;;5073824;28;20243;-51
2022/05/28 05:38:15;;;;;;;1.60;1.50;;;14.50;99.90;;;;;;5071834;28;20250;-50
2022/05/28 05:40:44;;;;;;;2.80;1.80;;;14.50;99.90;;;;;;5071750;28;20317;-51
2022/05/28 05:43:11;;;;;;;1.83;1.83;;;14.50;99.90;;;;;;5070308;28;20197;-50
2022/05/28 05:45:38;;;;;;;2.10;2.00;;;14.50;99.90;;;;;;5070778;28;20302;-51
2022/05/28 05:48:06;;;;;;;1.30;1.20;;;14.60;99.90;;;;;;5072906;28;20200;-51
2022/05/28 05:50:33;;;;;;;1.40;1.40;;;14.60;99.90;;;;;;5070641;28;20193;-51
2022/05/28 05:53:00;;;;;;;1.90;1.33;;;14.60;99.90;;;;;;5072919;28;20202;-51
2022/05/28 05:55:28;;;;;;;2.00;1.83;;;14.60;99.90;;;;;;5075795;28;20220;-51
2022/05/28 05:57:56;;;;;;;2.30;2.20;;;14.70;99.90;;;;;;5069113;28;20201;-51
2022/05/28 06:00:23;;;;;;;1.80;1.70;;;14.70;99.90;;;;;;5070818;28;20213;-51
2022/05/28 06:02:53;;;;;;;2.00;2.00;;;14.60;99.90;;;;;;5070017;28;20204;-51
2022/05/28 06:05:21;;;;;;;2.00;1.60;;;14.60;99.90;;;;;;5070350;28;20235;-51
2022/05/28 06:07:48;;;;;;;2.10;2.00;;;14.60;99.90;;;;;;5072337;28;20292;-51
2022/05/28 06:10:16;;;;;;;1.80;1.67;;;14.70;99.90;;;;;;5071543;28;20276;-51
2022/05/28 06:12:44;;;;;;;1.83;1.83;;;14.60;99.90;;;;;;5071957;28;20201;-51
2022/05/28 06:15:15;;;;;;;2.47;2.27;;;14.60;99.90;;;;;;5070980;28;20221;-51
2022/05/28 06:17:42;;;;;;;1.93;1.90;;;14.60;99.90;;;;;;5069965;28;20307;-51
2022/05/28 06:20:12;;;;;;;2.83;1.80;;;14.60;99.90;;;;;;5069056;28;20213;-51
2022/05/28 06:22:39;;;;;;;3.70;2.33;;;14.60;99.90;;;;;;5068793;28;20232;-51
2022/05/28 06:25:07;;;;;;;3.00;2.47;;;14.60;99.90;;;;;;5075234;28;20586;-51
2022/05/28 06:27:34;;;;;;;2.00;1.90;;;14.60;99.90;;;;;;5075979;28;20543;-51
2022/05/28 06:30:01;;;;;;;3.00;2.47;;;14.60;99.90;;;;;;5071238;28;20193;-51
2022/05/28 06:32:29;;;;;;;2.53;2.13;;;14.60;99.90;;;;;;5071563;28;20579;-51
2022/05/28 06:34:59;;;;;;;6.43;2.83;;;14.60;99.90;;;;;;5073138;28;20225;-51
2022/05/28 06:37:27;;;;;;;2.20;2.10;;;14.60;99.90;;;;;;5076574;28;20299;-51
2022/05/28 06:39:54;;;;;;;2.13;2.00;;;14.70;99.90;;;;;;5079126;28;20231;-51
2022/05/28 06:42:22;;;;;;;2.73;2.50;;;14.80;99.90;;;;;;5076628;28;20217;-50
2022/05/28 06:44:49;;;;;;;3.90;2.40;;;14.80;99.90;;;;;;5069947;28;20218;-51
2022/05/28 06:47:16;;;;;;;4.10;3.07;;;14.90;99.90;;;;;;5077137;28;20193;-51
2022/05/28 06:51:01;;;;;;;2.13;2.03;;;15.00;99.90;;;;;;5072078;28;20197;-51
2022/05/28 06:52:31;;;;;;;3.00;2.60;;;15.00;99.90;;;;;;5074148;28;20208;-51
2022/05/28 06:54:59;;;;;;;2.63;2.53;;;14.90;99.90;;;;;;5077669;28;20321;-51
2022/05/28 06:57:26;;;;;;;2.83;2.63;;;14.90;99.90;;;;;;5070634;28;20192;-51
2022/05/28 06:59:54;;;;;;;2.83;2.63;;;14.80;99.90;;;;;;5076845;28;20305;-51
2022/05/28 07:02:21;;;;;;;2.20;2.10;;;14.80;99.90;;;;;;5077660;28;20197;-51
2022/05/28 07:04:49;;;;;;;2.50;2.30;;;14.90;99.90;;;;;;5082217;28;20229;-50
2022/05/28 07:07:16;;;;;;;3.20;3.00;;;15.00;99.90;;;;;;5076662;28;20193;-51
2022/05/28 07:09:43;;;;;;;3.23;3.00;;;15.00;99.90;;;;;;5076397;28;20212;-51
2022/05/28 07:12:11;;;;;;;2.63;2.53;;;15.00;99.90;;;;;;5068809;28;20249;-51
2022/05/28 07:14:38;;;;;;;2.90;2.70;;;15.10;99.90;;;;;;5075809;28;20236;-51
2022/05/28 07:17:05;;;;;;;2.93;2.67;;;15.20;99.90;;;;;;5084667;28;20528;-51
2022/05/28 07:19:32;;;;;;;2.63;2.43;;;15.30;99.90;;;;;;5080388;28;20220;-51
2022/05/28 07:22:01;;;;;;;2.50;2.40;;;15.70;99.90;;;;;;5073431;28;20582;-51
2022/05/28 07:24:28;;;;;;;6.00;2.93;;;15.90;99.90;;;;;;5076983;28;20720;-50
2022/05/28 07:26:58;;;;;;;2.47;2.37;;;16.00;99.90;;;;;;5077769;28;20224;-51
2022/05/28 07:29:26;;;;;;;2.40;2.30;;;16.00;99.90;;;;;;5079324;28;20193;-51
2022/05/28 07:31:53;;;;;;;3.17;2.77;;;16.10;99.90;;;;;;5087427;28;20200;-50
2022/05/28 07:34:20;;;;;;;3.10;2.90;;;16.10;99.90;;;;;;5094979;28;20220;-51
2022/05/28 07:36:48;;;;;;;3.13;2.90;;;15.80;99.90;;;;;;5082193;28;20623;-51
2022/05/28 07:39:16;;;;;;;3.40;3.17;;;15.70;99.90;;;;;;5084806;28;20205;-50
2022/05/28 07:41:44;;;;;;;2.90;2.70;;;15.70;99.90;;;;;;5080471;28;20201;-51
2022/05/28 07:44:11;;;;;;;3.47;3.13;;;15.80;99.90;;;;;;5068190;28;20246;-50
2022/05/28 07:46:41;;;;;;;3.17;3.00;;;15.80;99.90;;;;;;5086029;28;20582;-51
2022/05/28 07:49:09;;;;;;;6.17;3.03;;;15.90;99.90;;;;;;5082062;28;20209;-51
2022/05/28 07:51:36;;;;;;;3.77;3.47;;;16.10;99.90;;;;;;5070520;28;20204;-52
2022/05/28 07:54:04;;;;;;;4.00;3.03;;;16.20;99.90;;;;;;5081674;28;20212;-51
2022/05/28 07:56:33;;;;;;;3.67;3.07;;;16.20;99.90;;;;;;5089578;28;20213;-51
2022/05/28 07:59:00;;;;;;;2.47;2.37;;;16.20;99.90;;;;;;5064620;28;20211;-51
2022/05/28 08:01:29;;;;;;;5.60;3.60;;;16.50;99.90;;;;;;5067926;28;20232;-51
2022/05/28 08:03:59;;;;;;;3.00;2.80;;;16.70;99.90;;;;;;5064556;28;20289;-51
2022/05/28 08:06:26;;;;;;;3.43;3.33;;;16.80;99.90;;;;;;5071923;28;20202;-51
2022/05/28 08:08:54;;;;;;;2.77;2.67;;;16.90;99.90;;;;;;5082879;28;20197;-51
2022/05/28 08:11:22;;;;;;;3.17;3.07;;;16.70;99.90;;;;;;5071248;28;20194;-50
2022/05/28 08:13:51;;;;;;;3.83;3.43;;;16.60;99.90;;;;;;5073310;28;20212;-50
2022/05/28 08:16:18;;;;;;;3.67;3.30;;;16.60;99.90;;;;;;5067584;28;20221;-51
2022/05/28 08:18:45;;;;;;;3.17;2.97;;;16.50;99.90;;;;;;5061926;28;20258;-51
2022/05/28 08:23:57;;;;;;;3.90;3.33;;;16.60;99.90;;;;;;5074415;28;20274;-51
2022/05/28 08:26:24;;;;;;;5.83;3.50;;;16.50;99.90;;;;;;5074409;28;20720;-50
2022/05/28 08:28:54;;;;;;;3.20;3.00;;;16.30;99.90;;;;;;5072262;28;20235;-51
2022/05/28 08:31:22;;;;;;;3.70;3.40;;;16.30;99.90;;;;;;5072827;28;20197;-51
2022/05/28 08:33:49;;;;;;;2.37;2.23;;;17.10;99.90;;;;;;5073813;28;20201;-51
2022/05/28 08:36:17;;;;;;;2.57;2.47;;;18.10;99.90;;;;;;5073362;28;20220;-51
2022/05/28 08:38:44;;;;;;;2.80;2.63;;;19.70;99.90;;;;;;5073581;28;20243;-51
2022/05/28 08:41:15;;;;;;;2.70;2.50;;;21.40;99.90;;;;;;5073339;28;20324;-51
2022/05/28 08:43:50;;;;;;;2.90;2.60;;;21.80;99.90;;;;;;5073511;28;20614;-51
2022/05/28 08:46:19;;;;;;;3.70;3.37;;;21.20;99.90;;;;;;5070117;28;20270;-51
2022/05/28 08:48:52;;;;;;;2.30;2.20;;;20.80;99.90;;;;;;5072973;28;20251;-52
2022/05/28 08:51:28;;;;;;;2.50;2.40;;;20.20;99.90;;;;;;5073146;28;20202;-52
2022/05/28 08:53:59;;;;;;;4.53;3.90;;;20.00;99.90;;;;;;5073288;28;20197;-52
2022/05/28 08:56:29;;;;;;;4.00;3.70;;;19.60;99.90;;;;;;5073110;28;20224;-51
2022/05/28 08:59:04;;;;;;;3.63;3.43;;;19.00;99.90;;;;;;5073258;28;20654;-52
2022/05/28 09:01:34;;;;;;;3.30;3.10;;;19.10;99.90;;;;;;5073014;28;20221;-51
2022/05/28 09:04:05;;;;;;;3.23;3.00;;;18.90;99.90;;;;;;5073476;28;20201;-52
2022/05/28 09:06:38;;;;;;;3.37;2.93;;;18.90;99.90;;;;;;5069459;28;20204;-52
2022/05/28 09:09:07;;;;;;;3.50;3.20;;;18.80;99.90;;;;;;5072397;28;20288;-54
2022/05/28 09:11:38;;;;;;;3.43;3.20;;;18.70;99.90;;;;;;5074074;28;20189;-51
2022/05/28 09:14:18;;;;;;;4.20;3.67;;;18.40;99.90;;;;;;5073238;28;20197;-51
2022/05/28 09:16:48;;;;;;;5.40;4.03;;;18.30;99.90;;;;;;5071026;28;20266;-51
2022/05/28 09:19:19;;;;;;;4.67;4.27;;;18.40;99.90;;;;;;5072911;28;20197;-51
2022/05/28 09:21:47;;;;;;;4.37;4.17;;;18.20;99.90;;;;;;5069142;28;20266;-51
2022/05/28 09:24:17;;;;;;;3.77;3.53;;;19.10;99.90;;;;;;5072508;28;20196;-51
2022/05/28 09:26:54;;;;;;;3.63;3.43;;;20.70;99.90;;;;;;5070555;28;20216;-51
2022/05/28 09:29:32;;;;;;;2.83;2.73;;;21.40;99.90;;;;;;5072472;28;20193;-51
2022/05/28 09:32:11;;;;;;;6.67;4.43;;;21.60;99.90;;;;;;5071889;28;20449;-51
2022/05/28 09:34:48;;;;;;;3.10;3.00;;;20.90;99.90;;;;;;5072474;28;20221;-51
2022/05/28 09:37:27;;;;;;;3.57;3.37;;;20.30;99.90;;;;;;5071077;28;20626;-51
2022/05/28 09:40:00;;;;;;;3.83;3.50;;;20.10;99.90;;;;;;5069633;28;20197;-51
2022/05/28 09:42:42;;;;;;;4.13;3.37;;;20.20;99.90;;;;;;5071658;28;20202;-52
2022/05/28 09:45:18;;;;;;;3.50;3.30;;;19.90;99.90;;;;;;5072097;28;20235;-51
2022/05/28 09:47:51;;;;;;;4.80;4.30;;;20.00;99.90;;;;;;5071129;28;20208;-51
2022/05/28 09:50:22;;;;;;;3.90;3.63;;;20.00;99.90;;;;;;5071990;28;20219;-51
2022/05/28 09:55:58;;;;;;;2.67;2.47;;;20.30;99.90;;;;;;5072326;28;20643;-51
2022/05/28 09:58:30;;;;;;;3.83;2.70;;;20.90;99.90;;;;;;5070816;28;20242;-51
2022/05/28 10:01:11;;;;;;;5.07;2.67;;;21.00;99.90;;;;;;5071874;28;20220;-51
2022/05/28 10:06:30;;;;;;;5.70;2.70;;;20.10;99.90;;;;;;5072007;28;20228;-52
2022/05/28 10:08:57;;;;;;;4.63;2.90;;;20.00;99.90;;;;;;5069710;28;20297;-51
2022/05/28 10:11:25;;;;;;;3.33;2.97;;;20.00;99.90;;;;;;5071302;28;20205;-51
2022/05/28 10:13:54;;;;;;;5.80;3.40;;;20.30;99.90;;;;;;5071560;28;20768;-51
2022/05/28 10:16:24;;;;;;;4.90;2.90;;;21.10;99.90;;;;;;5071656;28;20204;-52
2022/05/28 10:18:56;;;;;;;3.50;2.70;;;22.20;99.90;;;;;;5069855;28;20205;-52
2022/05/28 10:21:30;;;;;;;4.50;3.17;;;23.60;99.90;;;;;;5071222;28;20760;-51
2022/05/28 10:24:01;;;;;;;4.00;2.90;;;23.30;99.90;;;;;;5071239;28;20197;-51
2022/05/28 10:26:32;;;;;;;4.07;2.20;;;23.70;99.90;;;;;;5071283;28;20200;-51
2022/05/28 10:29:03;;;;;;;2.50;2.30;;;23.90;99.90;;;;;;5068104;28;20209;-51
2022/05/28 10:31:32;;;;;;;3.00;1.70;;;24.40;99.90;;;;;;5081640;28;20245;-51
2022/05/28 10:34:01;;;;;;;1.63;1.53;;;23.50;99.90;;;;;;5076990;28;20539;-51
2022/05/28 10:36:31;;;;;;;2.00;1.90;;;22.80;99.90;;;;;;5071661;28;20333;-51
2022/05/28 10:39:06;;;;;;;4.30;2.00;;;22.90;99.90;;;;;;5085779;28;20270;-52
2022/05/28 10:41:36;;;;;;;1.73;1.57;;;23.10;99.90;;;;;;5069581;28;20251;-52
2022/05/28 10:44:04;;;;;;;2.50;1.70;;;23.30;99.90;;;;;;5076351;28;20671;-51
2022/05/28 10:46:44;;;;;;;2.20;2.07;;;23.20;99.90;;;;;;5077275;28;20650;-52
2022/05/28 10:49:30;;;;;;;5.83;1.80;;;22.50;99.90;;;;;;5059834;28;20205;-51
2022/05/28 10:52:12;;;;;;;7.63;2.57;;;22.10;99.90;;;;;;5078636;28;20280;-52
2022/05/28 10:54:52;;;;;;;3.80;1.93;;;21.50;99.90;;;;;;5083112;28;20216;-50
2022/05/28 10:57:42;;;;;;;2.23;1.60;;;21.10;99.90;;;;;;5057484;28;20197;-51
2022/05/28 11:00:12;;;;;;;2.47;1.93;;;20.80;99.90;;;;;;5050598;28;20662;-51
2022/05/28 11:03:09;;;;;;;7.40;2.10;;;20.80;99.90;;;;;;5073633;28;20634;-51
2022/05/28 11:05:55;;;;;;;5.70;2.37;;;20.30;99.90;;;;;;5075634;28;20212;-52
2022/05/28 11:08:32;;;;;;;3.00;2.00;;;20.10;99.90;;;;;;5066012;28;20260;-51
2022/05/28 11:11:16;;;;;;;6.07;3.33;;;20.10;99.90;;;;;;5080017;28;20200;-51
2022/05/28 11:14:17;;;;;;;1.70;1.60;;;19.90;99.90;;;;;;5074591;28;20201;-51
2022/05/28 11:17:09;;;;;;;3.53;1.77;;;19.80;99.90;;;;;;5061806;28;20201;-52
2022/05/28 11:19:49;;;;;;;3.33;2.03;;;19.90;99.90;;;;;;5065524;28;20323;-51
2022/05/28 11:22:40;;;;;;;3.27;1.83;;;20.10;99.90;;;;;;5070339;28;20228;-52
2022/05/28 11:25:14;;;;;;;2.37;2.07;;;20.60;99.90;;;;;;5068257;28;20587;-52
2022/05/28 11:27:56;;;;;;;3.40;2.43;;;20.90;99.90;;;;;;5078855;28;20306;-52
2022/05/28 11:30:27;;;;;;;2.17;1.70;;;21.30;99.90;;;;;;5067380;28;20253;-51
2022/05/28 11:33:00;;;;;;;1.83;1.70;;;21.50;99.90;;;;;;5080594;28;20677;-51
2022/05/28 11:35:37;;;;;;;1.13;1.13;;;21.60;99.90;;;;;;5072411;28;20216;-52
2022/05/28 11:38:14;;;;;;;2.40;0.87;;;21.90;99.90;;;;;;5078137;22;20248;-47
2022/05/28 11:40:56;;;;;;;3.43;1.50;;;21.80;98.70;;;;;;5057728;28;20760;-47
2022/05/28 11:43:28;;;;;;;1.50;1.30;;;21.90;96.80;;;;;;5053555;28;20202;-47
2022/05/28 11:46:01;;;;;;;1.73;1.33;;;22.00;99.00;;;;;;5056267;28;20202;-47
2022/05/28 11:51:30;;;;;;;2.93;1.23;;;21.80;99.50;;;;;;5041403;28;20198;-47
2022/05/28 11:54:05;;;;;;;2.87;1.27;;;21.50;96.70;;;;;;5051117;28;20233;-47
2022/05/28 11:56:32;;;;;;;2.07;1.90;;;21.60;95.90;;;;;;5052357;28;20703;-47
2022/05/28 11:59:04;;;;;;;1.80;1.50;;;21.40;96.90;;;;;;5052344;28;20240;-47
2022/05/28 12:01:38;;;;;;;3.20;1.57;;;21.30;96.80;;;;;;5061206;28;20218;-47
2022/05/28 12:04:06;;;;;;;1.47;1.00;;;21.30;95.90;;;;;;5071817;28;20693;-47
2022/05/28 12:06:42;;;;;;;1.50;1.17;;;21.40;99.30;;;;;;5073451;28;20629;-46
2022/05/28 12:09:23;;;;;;;1.23;1.00;;;21.50;97.20;;;;;;5054370;28;20190;-46
2022/05/28 12:12:00;;;;;;;2.90;1.10;;;21.50;99.30;;;;;;5054365;28;20244;-46
2022/05/28 12:14:31;;;;;;;2.37;1.50;;;21.60;96.90;;;;;;5054785;28;20271;-46
2022/05/28 12:17:08;;;;;;;1.70;1.17;;;21.30;97.10;;;;;;5052665;28;20226;-46
2022/05/28 12:19:43;;;;;;;2.03;1.23;;;21.00;94.70;;;;;;5052979;28;20198;-46
2022/05/28 12:22:24;;;;;;;2.93;1.10;;;21.00;96.00;;;;;;5048843;28;20661;-46
2022/05/28 12:24:59;;;;;;;1.57;1.00;;;21.20;98.10;;;;;;5051583;28;20209;-46
2022/05/28 12:27:37;;;;;;;1.90;1.13;;;20.90;94.20;;;;;;5050047;28;20221;-46
2022/05/28 12:30:08;;;;;;;1.70;0.93;;;20.70;94.70;;;;;;5054284;28;20197;-46
2022/05/28 12:32:45;;;;;;;3.53;1.03;;;20.50;94.70;;;;;;5053995;28;20254;-46
2022/05/28 12:35:42;;;;;;;6.37;1.20;;;20.20;92.80;;;;;;5054243;28;20210;-46
2022/05/28 12:38:38;;;;;;;4.60;1.10;;;20.00;95.50;;;;;;5051266;28;20229;-46
2022/05/28 12:41:15;;;;;;;3.83;1.00;;;20.20;96.20;;;;;;5053919;28;20568;-47
2022/05/28 12:43:51;;;;;;;2.23;1.13;;;20.60;97.90;;;;;;5054047;28;20204;-46
2022/05/28 12:46:21;;;;;;;1.83;0.87;;;20.60;96.30;;;;;;5054089;28;20205;-46
2022/05/28 12:48:51;;;;;;;2.00;0.70;;;20.50;97.90;;;;;;5053064;28;20587;-46
2022/05/28 12:51:29;;;;;;;1.90;1.47;;;20.60;94.60;;;;;;5053265;28;20250;-46
2022/05/28 12:53:58;;;;;;;2.50;1.40;;;20.60;93.90;;;;;;5053900;28;20667;-46
2022/05/28 12:56:41;;;;;;;2.13;1.10;;;20.50;95.60;;;;;;5048171;28;20664;-46
2022/05/28 12:59:10;;;;;;;3.87;1.57;;;20.70;97.40;;;;;;5053331;28;20252;-46
2022/05/28 13:01:39;;;;;;;2.97;1.40;;;20.60;96.50;;;;;;5053365;28;20711;-46
2022/05/28 13:04:15;;;;;;;2.03;1.80;;;20.80;98.50;;;;;;5053732;28;20275;-46
2022/05/28 13:06:51;;;;;;;3.53;2.00;;;20.30;98.60;;;;;;5052563;28;20225;-46
2022/05/28 13:09:24;;;;;;;2.50;2.40;;;20.00;97.70;;;;;;5049386;28;20198;-46
2022/05/28 13:11:58;;;;;;;2.27;2.17;;;19.90;96.30;;;;;;5053292;28;20198;-47
2022/05/28 13:15:01;;;;;;;3.03;2.13;;;20.20;99.90;;;;;;5049946;28;20205;-46
2022/05/28 13:17:53;;;;;;;5.13;2.90;;;20.40;99.90;;;;;;5052578;28;20302;-46